sensor_id;sensor_type;location;lat;lon;timestamp;P1;durP1;ratioP1;P2;durP2;ratioP2
15466;SDS011;7834;49.452;11.056;2024-01-07T00:01:15;16.23;;;13.17;;
15466;SDS011;7834;49.452;11.056;2024-01-07T00:03:40;18.27;;;12.68;;
15466;SDS011;7834;49.452;11.056;2024-01-07T00:06:07;14.88;;;12.43;;
15466;SDS011;7834;49.452;11.056;2024-01-07T00:08:33;17.37;;;13.00;;
15466;SDS011;7834;49.452;11.056;2024-01-07T00:10:59;18.08;;;13.23;;
15466;SDS011;7834;49.452;11.056;2024-01-07T00:13:24;19.03;;;13.17;;
15466;SDS011;7834;49.452;11.056;2024-01-07T00:15:50;16.98;;;12.75;;
15466;SDS011;7834;49.452;11.056;2024-01-07T00:18:15;17.50;;;13.63;;
15466;SDS011;7834;49.452;11.056;2024-01-07T00:20:41;15.98;;;12.20;;
15466;SDS011;7834;49.452;11.056;2024-01-07T00:23:06;16.77;;;12.53;;
15466;SDS011;7834;49.452;11.056;2024-01-07T00:25:32;16.13;;;12.30;;
15466;SDS011;7834;49.452;11.056;2024-01-07T00:27:58;15.30;;;12.20;;
15466;SDS011;7834;49.452;11.056;2024-01-07T00:30:23;13.90;;;12.23;;
15466;SDS011;7834;49.452;11.056;2024-01-07T00:32:49;16.30;;;12.75;;
15466;SDS011;7834;49.452;11.056;2024-01-07T00:35:16;15.93;;;12.07;;
15466;SDS011;7834;49.452;11.056;2024-01-07T00:37:42;16.27;;;12.33;;
15466;SDS011;7834;49.452;11.056;2024-01-07T00:40:07;15.93;;;12.85;;
15466;SDS011;7834;49.452;11.056;2024-01-07T00:42:33;18.10;;;12.68;;
15466;SDS011;7834;49.452;11.056;2024-01-07T00:44:59;17.27;;;12.80;;
15466;SDS011;7834;49.452;11.056;2024-01-07T00:47:24;16.15;;;12.77;;
15466;SDS011;7834;49.452;11.056;2024-01-07T00:49:50;16.27;;;12.67;;
15466;SDS011;7834;49.452;11.056;2024-01-07T00:52:15;15.63;;;13.18;;
15466;SDS011;7834;49.452;11.056;2024-01-07T00:54:41;16.67;;;13.10;;
15466;SDS011;7834;49.452;11.056;2024-01-07T00:57:06;17.10;;;12.73;;
15466;SDS011;7834;49.452;11.056;2024-01-07T00:59:32;16.97;;;12.67;;
15466;SDS011;7834;49.452;11.056;2024-01-07T01:02:01;18.40;;;13.18;;
15466;SDS011;7834;49.452;11.056;2024-01-07T01:04:27;16.27;;;12.93;;
15466;SDS011;7834;49.452;11.056;2024-01-07T01:06:52;16.40;;;12.30;;
15466;SDS011;7834;49.452;11.056;2024-01-07T01:09:18;16.17;;;13.33;;
15466;SDS011;7834;49.452;11.056;2024-01-07T01:11:43;17.03;;;13.23;;
15466;SDS011;7834;49.452;11.056;2024-01-07T01:14:09;18.17;;;13.45;;
15466;SDS011;7834;49.452;11.056;2024-01-07T01:16:35;16.50;;;12.80;;
15466;SDS011;7834;49.452;11.056;2024-01-07T01:19:00;17.48;;;12.85;;
15466;SDS011;7834;49.452;11.056;2024-01-07T01:21:26;15.63;;;13.10;;
15466;SDS011;7834;49.452;11.056;2024-01-07T01:23:51;16.67;;;13.05;;
15466;SDS011;7834;49.452;11.056;2024-01-07T01:26:17;14.60;;;12.50;;
15466;SDS011;7834;49.452;11.056;2024-01-07T01:28:42;16.45;;;12.60;;
15466;SDS011;7834;49.452;11.056;2024-01-07T01:31:08;16.57;;;13.53;;
15466;SDS011;7834;49.452;11.056;2024-01-07T01:33:37;18.60;;;12.80;;
15466;SDS011;7834;49.452;11.056;2024-01-07T01:36:06;15.95;;;12.55;;
15466;SDS011;7834;49.452;11.056;2024-01-07T01:38:34;16.45;;;12.88;;
15466;SDS011;7834;49.452;11.056;2024-01-07T01:40:59;16.25;;;12.88;;
15466;SDS011;7834;49.452;11.056;2024-01-07T01:43:25;15.07;;;12.70;;
15466;SDS011;7834;49.452;11.056;2024-01-07T01:45:55;15.50;;;12.63;;
15466;SDS011;7834;49.452;11.056;2024-01-07T01:48:21;17.23;;;13.48;;
15466;SDS011;7834;49.452;11.056;2024-01-07T01:50:47;16.52;;;13.25;;
15466;SDS011;7834;49.452;11.056;2024-01-07T01:53:13;15.85;;;12.90;;
15466;SDS011;7834;49.452;11.056;2024-01-07T01:55:41;15.40;;;12.75;;
15466;SDS011;7834;49.452;11.056;2024-01-07T01:58:06;14.98;;;12.77;;
15466;SDS011;7834;49.452;11.056;2024-01-07T02:00:33;16.13;;;12.90;;
15466;SDS011;7834;49.452;11.056;2024-01-07T02:02:59;16.00;;;12.83;;
15466;SDS011;7834;49.452;11.056;2024-01-07T02:05:26;17.80;;;12.43;;
15466;SDS011;7834;49.452;11.056;2024-01-07T02:07:51;16.50;;;12.60;;
15466;SDS011;7834;49.452;11.056;2024-01-07T02:10:17;16.47;;;13.17;;
15466;SDS011;7834;49.452;11.056;2024-01-07T02:12:43;16.57;;;12.83;;
15466;SDS011;7834;49.452;11.056;2024-01-07T02:15:08;14.77;;;12.32;;
15466;SDS011;7834;49.452;11.056;2024-01-07T02:17:34;17.70;;;12.47;;
15466;SDS011;7834;49.452;11.056;2024-01-07T02:19:59;16.45;;;12.85;;
15466;SDS011;7834;49.452;11.056;2024-01-07T02:22:25;16.37;;;12.40;;
15466;SDS011;7834;49.452;11.056;2024-01-07T02:24:50;14.33;;;12.63;;
15466;SDS011;7834;49.452;11.056;2024-01-07T02:27:16;13.90;;;12.38;;
15466;SDS011;7834;49.452;11.056;2024-01-07T02:29:41;14.03;;;11.93;;
15466;SDS011;7834;49.452;11.056;2024-01-07T02:32:07;15.07;;;12.15;;
15466;SDS011;7834;49.452;11.056;2024-01-07T02:34:33;14.97;;;12.17;;
15466;SDS011;7834;49.452;11.056;2024-01-07T02:36:58;14.90;;;12.30;;
15466;SDS011;7834;49.452;11.056;2024-01-07T02:39:24;14.23;;;11.80;;
15466;SDS011;7834;49.452;11.056;2024-01-07T02:41:50;13.55;;;11.32;;
15466;SDS011;7834;49.452;11.056;2024-01-07T02:44:15;24.05;;;18.10;;
15466;SDS011;7834;49.452;11.056;2024-01-07T02:46:41;14.03;;;11.10;;
15466;SDS011;7834;49.452;11.056;2024-01-07T02:49:07;12.20;;;10.57;;
15466;SDS011;7834;49.452;11.056;2024-01-07T02:51:32;12.37;;;10.50;;
15466;SDS011;7834;49.452;11.056;2024-01-07T02:53:58;17.60;;;12.70;;
15466;SDS011;7834;49.452;11.056;2024-01-07T02:56:23;12.90;;;10.03;;
15466;SDS011;7834;49.452;11.056;2024-01-07T02:58:49;10.52;;;9.07;;
15466;SDS011;7834;49.452;11.056;2024-01-07T03:01:14;11.00;;;8.87;;
15466;SDS011;7834;49.452;11.056;2024-01-07T03:03:40;10.82;;;9.35;;
15466;SDS011;7834;49.452;11.056;2024-01-07T03:06:05;10.93;;;9.10;;
15466;SDS011;7834;49.452;11.056;2024-01-07T03:08:31;10.20;;;8.80;;
15466;SDS011;7834;49.452;11.056;2024-01-07T03:10:57;10.17;;;8.53;;
15466;SDS011;7834;49.452;11.056;2024-01-07T03:13:22;11.02;;;8.68;;
15466;SDS011;7834;49.452;11.056;2024-01-07T03:15:48;9.20;;;7.90;;
15466;SDS011;7834;49.452;11.056;2024-01-07T03:18:13;10.43;;;8.70;;
15466;SDS011;7834;49.452;11.056;2024-01-07T03:20:41;9.00;;;8.00;;
15466;SDS011;7834;49.452;11.056;2024-01-07T03:23:07;9.93;;;7.90;;
15466;SDS011;7834;49.452;11.056;2024-01-07T03:25:33;10.15;;;7.80;;
15466;SDS011;7834;49.452;11.056;2024-01-07T03:27:58;11.00;;;8.30;;
15466;SDS011;7834;49.452;11.056;2024-01-07T03:30:24;9.33;;;7.70;;
15466;SDS011;7834;49.452;11.056;2024-01-07T03:32:49;9.57;;;8.00;;
15466;SDS011;7834;49.452;11.056;2024-01-07T03:35:15;10.20;;;7.93;;
15466;SDS011;7834;49.452;11.056;2024-01-07T03:37:41;8.93;;;7.20;;
15466;SDS011;7834;49.452;11.056;2024-01-07T03:40:10;10.03;;;7.87;;
15466;SDS011;7834;49.452;11.056;2024-01-07T03:42:37;9.23;;;7.70;;
15466;SDS011;7834;49.452;11.056;2024-01-07T03:45:02;8.63;;;7.43;;
15466;SDS011;7834;49.452;11.056;2024-01-07T03:47:28;9.25;;;7.93;;
15466;SDS011;7834;49.452;11.056;2024-01-07T03:49:53;9.80;;;7.47;;
15466;SDS011;7834;49.452;11.056;2024-01-07T03:52:22;9.48;;;7.75;;
15466;SDS011;7834;49.452;11.056;2024-01-07T03:54:47;9.35;;;8.00;;
15466;SDS011;7834;49.452;11.056;2024-01-07T03:57:13;10.60;;;8.50;;
15466;SDS011;7834;49.452;11.056;2024-01-07T03:59:38;10.05;;;8.13;;
15466;SDS011;7834;49.452;11.056;2024-01-07T04:02:04;10.57;;;8.43;;
15466;SDS011;7834;49.452;11.056;2024-01-07T04:04:29;9.93;;;8.05;;
15466;SDS011;7834;49.452;11.056;2024-01-07T04:06:56;10.10;;;8.20;;
15466;SDS011;7834;49.452;11.056;2024-01-07T04:09:21;10.95;;;8.25;;
15466;SDS011;7834;49.452;11.056;2024-01-07T04:11:47;10.03;;;8.13;;
15466;SDS011;7834;49.452;11.056;2024-01-07T04:14:14;10.73;;;8.45;;
15466;SDS011;7834;49.452;11.056;2024-01-07T04:16:40;11.15;;;8.55;;
15466;SDS011;7834;49.452;11.056;2024-01-07T04:19:06;11.35;;;8.52;;
15466;SDS011;7834;49.452;11.056;2024-01-07T04:21:31;10.20;;;7.90;;
15466;SDS011;7834;49.452;11.056;2024-01-07T04:23:57;10.65;;;8.30;;
15466;SDS011;7834;49.452;11.056;2024-01-07T04:26:22;10.07;;;8.00;;
15466;SDS011;7834;49.452;11.056;2024-01-07T04:28:48;10.82;;;8.00;;
15466;SDS011;7834;49.452;11.056;2024-01-07T04:31:14;9.03;;;7.93;;
15466;SDS011;7834;49.452;11.056;2024-01-07T04:33:42;10.35;;;8.02;;
15466;SDS011;7834;49.452;11.056;2024-01-07T04:36:08;10.40;;;7.93;;
15466;SDS011;7834;49.452;11.056;2024-01-07T04:38:33;9.50;;;7.55;;
15466;SDS011;7834;49.452;11.056;2024-01-07T04:40:59;9.90;;;7.57;;
15466;SDS011;7834;49.452;11.056;2024-01-07T04:43:25;8.88;;;7.35;;
15466;SDS011;7834;49.452;11.056;2024-01-07T04:45:50;8.90;;;7.00;;
15466;SDS011;7834;49.452;11.056;2024-01-07T04:48:16;8.77;;;7.25;;
15466;SDS011;7834;49.452;11.056;2024-01-07T04:50:42;8.60;;;7.27;;
15466;SDS011;7834;49.452;11.056;2024-01-07T04:53:08;9.27;;;7.13;;
15466;SDS011;7834;49.452;11.056;2024-01-07T04:55:33;9.15;;;7.38;;
15466;SDS011;7834;49.452;11.056;2024-01-07T04:57:59;9.03;;;7.27;;
15466;SDS011;7834;49.452;11.056;2024-01-07T05:00:25;8.75;;;7.10;;
15466;SDS011;7834;49.452;11.056;2024-01-07T05:02:50;8.23;;;6.73;;
15466;SDS011;7834;49.452;11.056;2024-01-07T05:05:16;8.13;;;6.43;;
15466;SDS011;7834;49.452;11.056;2024-01-07T05:07:41;9.32;;;6.97;;
15466;SDS011;7834;49.452;11.056;2024-01-07T05:10:07;9.13;;;7.03;;
15466;SDS011;7834;49.452;11.056;2024-01-07T05:12:33;8.82;;;6.90;;
15466;SDS011;7834;49.452;11.056;2024-01-07T05:14:58;7.63;;;6.63;;
15466;SDS011;7834;49.452;11.056;2024-01-07T05:17:24;8.35;;;6.30;;
15466;SDS011;7834;49.452;11.056;2024-01-07T05:19:49;7.50;;;6.30;;
15466;SDS011;7834;49.452;11.056;2024-01-07T05:22:15;8.02;;;6.43;;
15466;SDS011;7834;49.452;11.056;2024-01-07T05:24:40;7.63;;;6.50;;
15466;SDS011;7834;49.452;11.056;2024-01-07T05:27:06;6.93;;;5.88;;
15466;SDS011;7834;49.452;11.056;2024-01-07T05:29:32;6.80;;;5.80;;
15466;SDS011;7834;49.452;11.056;2024-01-07T05:32:01;9.00;;;6.03;;
15466;SDS011;7834;49.452;11.056;2024-01-07T05:34:27;6.93;;;5.95;;
15466;SDS011;7834;49.452;11.056;2024-01-07T05:36:52;7.45;;;6.15;;
15466;SDS011;7834;49.452;11.056;2024-01-07T05:39:21;6.95;;;5.90;;
15466;SDS011;7834;49.452;11.056;2024-01-07T05:41:47;7.27;;;5.77;;
15466;SDS011;7834;49.452;11.056;2024-01-07T05:44:12;6.88;;;5.88;;
15466;SDS011;7834;49.452;11.056;2024-01-07T05:46:38;6.83;;;5.77;;
15466;SDS011;7834;49.452;11.056;2024-01-07T05:49:05;7.00;;;5.43;;
15466;SDS011;7834;49.452;11.056;2024-01-07T05:51:30;6.80;;;5.43;;
15466;SDS011;7834;49.452;11.056;2024-01-07T05:53:56;6.80;;;5.60;;
15466;SDS011;7834;49.452;11.056;2024-01-07T05:56:22;6.82;;;5.68;;
15466;SDS011;7834;49.452;11.056;2024-01-07T05:58:47;7.27;;;5.63;;
15466;SDS011;7834;49.452;11.056;2024-01-07T06:01:17;7.53;;;6.00;;
15466;SDS011;7834;49.452;11.056;2024-01-07T06:03:43;6.97;;;5.75;;
15466;SDS011;7834;49.452;11.056;2024-01-07T06:06:09;7.20;;;5.80;;
15466;SDS011;7834;49.452;11.056;2024-01-07T06:08:34;7.90;;;6.18;;
15466;SDS011;7834;49.452;11.056;2024-01-07T06:11:00;7.23;;;5.90;;
15466;SDS011;7834;49.452;11.056;2024-01-07T06:13:26;8.30;;;6.45;;
15466;SDS011;7834;49.452;11.056;2024-01-07T06:15:52;7.40;;;6.20;;
15466;SDS011;7834;49.452;11.056;2024-01-07T06:18:17;7.40;;;6.25;;
15466;SDS011;7834;49.452;11.056;2024-01-07T06:20:43;7.43;;;6.38;;
15466;SDS011;7834;49.452;11.056;2024-01-07T06:23:09;10.10;;;6.90;;
15466;SDS011;7834;49.452;11.056;2024-01-07T06:25:34;7.50;;;6.47;;
15466;SDS011;7834;49.452;11.056;2024-01-07T06:28:00;8.20;;;6.80;;
15466;SDS011;7834;49.452;11.056;2024-01-07T06:30:25;9.50;;;7.30;;
15466;SDS011;7834;49.452;11.056;2024-01-07T06:32:54;8.70;;;7.07;;
15466;SDS011;7834;49.452;11.056;2024-01-07T06:35:21;9.07;;;7.40;;
15466;SDS011;7834;49.452;11.056;2024-01-07T06:37:47;9.63;;;7.38;;
15466;SDS011;7834;49.452;11.056;2024-01-07T06:40:12;9.97;;;7.90;;
15466;SDS011;7834;49.452;11.056;2024-01-07T06:42:38;9.23;;;7.65;;
15466;SDS011;7834;49.452;11.056;2024-01-07T06:45:04;10.00;;;7.73;;
15466;SDS011;7834;49.452;11.056;2024-01-07T06:47:29;10.18;;;7.78;;
15466;SDS011;7834;49.452;11.056;2024-01-07T06:49:55;9.00;;;7.70;;
15466;SDS011;7834;49.452;11.056;2024-01-07T06:52:20;10.15;;;8.18;;
15466;SDS011;7834;49.452;11.056;2024-01-07T06:54:48;10.57;;;8.05;;
15466;SDS011;7834;49.452;11.056;2024-01-07T06:57:14;10.13;;;8.23;;
15466;SDS011;7834;49.452;11.056;2024-01-07T06:59:39;10.68;;;8.40;;
15466;SDS011;7834;49.452;11.056;2024-01-07T07:02:05;10.67;;;8.43;;
15466;SDS011;7834;49.452;11.056;2024-01-07T07:04:30;10.45;;;8.68;;
15466;SDS011;7834;49.452;11.056;2024-01-07T07:06:56;11.20;;;8.73;;
15466;SDS011;7834;49.452;11.056;2024-01-07T07:09:23;11.77;;;9.15;;
15466;SDS011;7834;49.452;11.056;2024-01-07T07:11:48;11.23;;;8.67;;
15466;SDS011;7834;49.452;11.056;2024-01-07T07:14:13;10.87;;;8.73;;
15466;SDS011;7834;49.452;11.056;2024-01-07T07:16:39;10.77;;;9.03;;
15466;SDS011;7834;49.452;11.056;2024-01-07T07:19:04;10.82;;;8.63;;
15466;SDS011;7834;49.452;11.056;2024-01-07T07:21:30;11.17;;;9.10;;
15466;SDS011;7834;49.452;11.056;2024-01-07T07:23:55;11.93;;;9.55;;
15466;SDS011;7834;49.452;11.056;2024-01-07T07:26:22;11.13;;;8.97;;
15466;SDS011;7834;49.452;11.056;2024-01-07T07:28:47;11.27;;;9.30;;
15466;SDS011;7834;49.452;11.056;2024-01-07T07:31:13;10.63;;;9.03;;
15466;SDS011;7834;49.452;11.056;2024-01-07T07:33:41;11.47;;;9.00;;
15466;SDS011;7834;49.452;11.056;2024-01-07T07:36:07;11.75;;;9.07;;
15466;SDS011;7834;49.452;11.056;2024-01-07T07:38:32;12.23;;;8.98;;
15466;SDS011;7834;49.452;11.056;2024-01-07T07:40:59;12.00;;;9.53;;
15466;SDS011;7834;49.452;11.056;2024-01-07T07:43:24;12.02;;;9.57;;
15466;SDS011;7834;49.452;11.056;2024-01-07T07:45:50;11.98;;;9.48;;
15466;SDS011;7834;49.452;11.056;2024-01-07T07:48:16;11.45;;;9.88;;
15466;SDS011;7834;49.452;11.056;2024-01-07T07:50:42;11.70;;;10.05;;
15466;SDS011;7834;49.452;11.056;2024-01-07T07:53:07;12.27;;;10.47;;
15466;SDS011;7834;49.452;11.056;2024-01-07T07:55:33;11.80;;;9.90;;
15466;SDS011;7834;49.452;11.056;2024-01-07T07:57:58;12.87;;;10.00;;
15466;SDS011;7834;49.452;11.056;2024-01-07T08:00:24;12.68;;;10.43;;
15466;SDS011;7834;49.452;11.056;2024-01-07T08:02:49;11.43;;;9.53;;
15466;SDS011;7834;49.452;11.056;2024-01-07T08:05:15;11.80;;;9.90;;
15466;SDS011;7834;49.452;11.056;2024-01-07T08:07:41;12.27;;;10.32;;
15466;SDS011;7834;49.452;11.056;2024-01-07T08:10:07;11.85;;;10.40;;
15466;SDS011;7834;49.452;11.056;2024-01-07T08:12:33;11.80;;;10.18;;
15466;SDS011;7834;49.452;11.056;2024-01-07T08:14:59;11.57;;;10.03;;
15466;SDS011;7834;49.452;11.056;2024-01-07T08:17:24;11.63;;;9.68;;
15466;SDS011;7834;49.452;11.056;2024-01-07T08:19:50;12.83;;;10.37;;
15466;SDS011;7834;49.452;11.056;2024-01-07T08:22:15;11.98;;;9.77;;
15466;SDS011;7834;49.452;11.056;2024-01-07T08:24:41;11.60;;;9.68;;
15466;SDS011;7834;49.452;11.056;2024-01-07T08:27:07;12.47;;;10.03;;
15466;SDS011;7834;49.452;11.056;2024-01-07T08:29:33;11.33;;;9.73;;
15466;SDS011;7834;49.452;11.056;2024-01-07T08:31:58;12.10;;;9.80;;
15466;SDS011;7834;49.452;11.056;2024-01-07T08:34:24;12.63;;;10.07;;
15466;SDS011;7834;49.452;11.056;2024-01-07T08:36:49;11.65;;;9.75;;
15466;SDS011;7834;49.452;11.056;2024-01-07T08:39:15;11.93;;;9.93;;
15466;SDS011;7834;49.452;11.056;2024-01-07T08:41:41;12.43;;;9.53;;
15466;SDS011;7834;49.452;11.056;2024-01-07T08:44:07;11.98;;;10.13;;
15466;SDS011;7834;49.452;11.056;2024-01-07T08:46:33;11.73;;;9.90;;
15466;SDS011;7834;49.452;11.056;2024-01-07T08:48:59;12.47;;;10.07;;
15466;SDS011;7834;49.452;11.056;2024-01-07T08:51:25;11.70;;;9.87;;
15466;SDS011;7834;49.452;11.056;2024-01-07T08:53:53;12.23;;;10.17;;
15466;SDS011;7834;49.452;11.056;2024-01-07T08:56:19;12.47;;;10.27;;
15466;SDS011;7834;49.452;11.056;2024-01-07T08:58:44;12.10;;;9.93;;
15466;SDS011;7834;49.452;11.056;2024-01-07T09:01:10;12.67;;;10.23;;
15466;SDS011;7834;49.452;11.056;2024-01-07T09:03:35;12.70;;;10.10;;
15466;SDS011;7834;49.452;11.056;2024-01-07T09:06:03;12.95;;;10.70;;
15466;SDS011;7834;49.452;11.056;2024-01-07T09:08:29;11.73;;;10.23;;
15466;SDS011;7834;49.452;11.056;2024-01-07T09:10:54;13.35;;;10.73;;
15466;SDS011;7834;49.452;11.056;2024-01-07T09:13:20;13.00;;;10.17;;
15466;SDS011;7834;49.452;11.056;2024-01-07T09:15:46;14.07;;;10.60;;
15466;SDS011;7834;49.452;11.056;2024-01-07T09:18:11;15.63;;;11.20;;
15466;SDS011;7834;49.452;11.056;2024-01-07T09:20:37;14.23;;;11.52;;
15466;SDS011;7834;49.452;11.056;2024-01-07T09:23:02;14.60;;;11.40;;
15466;SDS011;7834;49.452;11.056;2024-01-07T09:25:28;15.27;;;11.60;;
15466;SDS011;7834;49.452;11.056;2024-01-07T09:27:54;14.25;;;11.48;;
15466;SDS011;7834;49.452;11.056;2024-01-07T09:30:20;14.13;;;11.50;;
15466;SDS011;7834;49.452;11.056;2024-01-07T09:32:45;16.87;;;12.23;;
15466;SDS011;7834;49.452;11.056;2024-01-07T09:35:11;16.03;;;12.03;;
15466;SDS011;7834;49.452;11.056;2024-01-07T09:37:36;15.07;;;11.37;;
15466;SDS011;7834;49.452;11.056;2024-01-07T09:40:02;15.80;;;12.17;;
15466;SDS011;7834;49.452;11.056;2024-01-07T09:42:30;15.53;;;11.33;;
15466;SDS011;7834;49.452;11.056;2024-01-07T09:44:56;14.07;;;11.33;;
15466;SDS011;7834;49.452;11.056;2024-01-07T09:47:21;15.65;;;12.20;;
15466;SDS011;7834;49.452;11.056;2024-01-07T09:49:49;15.68;;;11.77;;
15466;SDS011;7834;49.452;11.056;2024-01-07T09:52:14;15.20;;;11.85;;
15466;SDS011;7834;49.452;11.056;2024-01-07T09:54:43;14.30;;;11.50;;
15466;SDS011;7834;49.452;11.056;2024-01-07T09:57:11;16.10;;;12.20;;
15466;SDS011;7834;49.452;11.056;2024-01-07T09:59:37;14.32;;;11.20;;
15466;SDS011;7834;49.452;11.056;2024-01-07T10:02:02;15.97;;;12.60;;
15466;SDS011;7834;49.452;11.056;2024-01-07T10:04:28;14.95;;;12.30;;
15466;SDS011;7834;49.452;11.056;2024-01-07T10:06:54;16.77;;;12.63;;
15466;SDS011;7834;49.452;11.056;2024-01-07T10:09:23;16.45;;;12.23;;
15466;SDS011;7834;49.452;11.056;2024-01-07T10:11:49;15.80;;;12.15;;
15466;SDS011;7834;49.452;11.056;2024-01-07T10:14:15;18.08;;;13.27;;
15466;SDS011;7834;49.452;11.056;2024-01-07T10:16:41;15.65;;;12.73;;
15466;SDS011;7834;49.452;11.056;2024-01-07T10:19:06;16.57;;;12.60;;
15466;SDS011;7834;49.452;11.056;2024-01-07T10:21:33;16.48;;;12.52;;
15466;SDS011;7834;49.452;11.056;2024-01-07T10:24:11;16.52;;;12.82;;
15466;SDS011;7834;49.452;11.056;2024-01-07T10:26:38;17.52;;;12.95;;
15466;SDS011;7834;49.452;11.056;2024-01-07T10:29:04;16.80;;;13.02;;
15466;SDS011;7834;49.452;11.056;2024-01-07T10:31:29;17.88;;;13.35;;
15466;SDS011;7834;49.452;11.056;2024-01-07T10:33:56;16.48;;;12.00;;
15466;SDS011;7834;49.452;11.056;2024-01-07T10:36:22;16.27;;;12.07;;
15466;SDS011;7834;49.452;11.056;2024-01-07T10:38:49;15.55;;;12.68;;
15466;SDS011;7834;49.452;11.056;2024-01-07T10:41:15;16.45;;;12.13;;
15466;SDS011;7834;49.452;11.056;2024-01-07T10:43:43;16.03;;;11.80;;
15466;SDS011;7834;49.452;11.056;2024-01-07T10:46:11;15.90;;;12.25;;
15466;SDS011;7834;49.452;11.056;2024-01-07T10:48:38;16.73;;;13.10;;
15466;SDS011;7834;49.452;11.056;2024-01-07T10:51:07;15.35;;;11.82;;
15466;SDS011;7834;49.452;11.056;2024-01-07T10:53:33;18.13;;;12.93;;
15466;SDS011;7834;49.452;11.056;2024-01-07T10:56:00;17.48;;;13.05;;
15466;SDS011;7834;49.452;11.056;2024-01-07T10:58:30;16.42;;;12.57;;
15466;SDS011;7834;49.452;11.056;2024-01-07T11:00:58;15.98;;;12.35;;
15466;SDS011;7834;49.452;11.056;2024-01-07T11:06:27;15.50;;;12.15;;
15466;SDS011;7834;49.452;11.056;2024-01-07T11:11:40;16.77;;;12.60;;
15466;SDS011;7834;49.452;11.056;2024-01-07T11:16:51;18.65;;;13.57;;
15466;SDS011;7834;49.452;11.056;2024-01-07T11:19:19;15.45;;;12.10;;
15466;SDS011;7834;49.452;11.056;2024-01-07T11:21:45;16.50;;;12.45;;
15466;SDS011;7834;49.452;11.056;2024-01-07T11:24:37;16.33;;;12.20;;
15466;SDS011;7834;49.452;11.056;2024-01-07T11:27:01;17.73;;;13.40;;
15466;SDS011;7834;49.452;11.056;2024-01-07T11:29:26;16.63;;;12.20;;
15466;SDS011;7834;49.452;11.056;2024-01-07T11:31:52;15.37;;;11.33;;
15466;SDS011;7834;49.452;11.056;2024-01-07T11:37:03;16.33;;;11.80;;
15466;SDS011;7834;49.452;11.056;2024-01-07T11:39:30;16.45;;;12.10;;
15466;SDS011;7834;49.452;11.056;2024-01-07T11:41:55;15.85;;;12.13;;
15466;SDS011;7834;49.452;11.056;2024-01-07T11:44:21;13.50;;;10.73;;
15466;SDS011;7834;49.452;11.056;2024-01-07T11:46:47;14.63;;;11.20;;
15466;SDS011;7834;49.452;11.056;2024-01-07T11:49:12;14.73;;;11.03;;
15466;SDS011;7834;49.452;11.056;2024-01-07T11:51:38;15.05;;;10.57;;
15466;SDS011;7834;49.452;11.056;2024-01-07T11:54:03;14.32;;;10.95;;
15466;SDS011;7834;49.452;11.056;2024-01-07T11:56:30;15.05;;;11.02;;
15466;SDS011;7834;49.452;11.056;2024-01-07T11:58:55;14.50;;;10.43;;
15466;SDS011;7834;49.452;11.056;2024-01-07T12:01:25;16.00;;;11.30;;
15466;SDS011;7834;49.452;11.056;2024-01-07T12:03:53;15.47;;;11.10;;
15466;SDS011;7834;49.452;11.056;2024-01-07T12:06:19;14.17;;;10.70;;
15466;SDS011;7834;49.452;11.056;2024-01-07T12:08:44;13.90;;;10.40;;
15466;SDS011;7834;49.452;11.056;2024-01-07T12:11:13;12.83;;;9.80;;
15466;SDS011;7834;49.452;11.056;2024-01-07T12:13:39;12.93;;;9.93;;
15466;SDS011;7834;49.452;11.056;2024-01-07T12:16:05;12.68;;;9.70;;
15466;SDS011;7834;49.452;11.056;2024-01-07T12:18:30;13.63;;;10.13;;
15466;SDS011;7834;49.452;11.056;2024-01-07T12:20:57;12.30;;;9.63;;
15466;SDS011;7834;49.452;11.056;2024-01-07T12:23:23;11.80;;;9.35;;
15466;SDS011;7834;49.452;11.056;2024-01-07T12:25:49;13.98;;;9.82;;
15466;SDS011;7834;49.452;11.056;2024-01-07T12:28:16;13.27;;;10.10;;
15466;SDS011;7834;49.452;11.056;2024-01-07T12:30:42;15.40;;;10.32;;
15466;SDS011;7834;49.452;11.056;2024-01-07T12:33:07;12.52;;;9.32;;
15466;SDS011;7834;49.452;11.056;2024-01-07T12:35:34;13.33;;;9.30;;
15466;SDS011;7834;49.452;11.056;2024-01-07T12:37:59;12.05;;;9.32;;
15466;SDS011;7834;49.452;11.056;2024-01-07T12:40:25;13.05;;;9.50;;
15466;SDS011;7834;49.452;11.056;2024-01-07T12:42:52;13.27;;;9.55;;
15466;SDS011;7834;49.452;11.056;2024-01-07T12:45:17;11.48;;;8.90;;
15466;SDS011;7834;49.452;11.056;2024-01-07T12:47:43;13.30;;;9.60;;
15466;SDS011;7834;49.452;11.056;2024-01-07T12:50:09;13.97;;;9.77;;
15466;SDS011;7834;49.452;11.056;2024-01-07T12:52:36;12.07;;;9.23;;
15466;SDS011;7834;49.452;11.056;2024-01-07T12:55:01;12.05;;;8.95;;
15466;SDS011;7834;49.452;11.056;2024-01-07T12:57:27;11.33;;;8.60;;
15466;SDS011;7834;49.452;11.056;2024-01-07T12:59:52;12.27;;;9.10;;
15466;SDS011;7834;49.452;11.056;2024-01-07T13:02:18;13.60;;;9.60;;
15466;SDS011;7834;49.452;11.056;2024-01-07T13:04:43;14.70;;;10.05;;
15466;SDS011;7834;49.452;11.056;2024-01-07T13:07:09;12.65;;;8.90;;
15466;SDS011;7834;49.452;11.056;2024-01-07T13:09:35;11.03;;;8.23;;
15466;SDS011;7834;49.452;11.056;2024-01-07T13:12:00;11.30;;;8.75;;
15466;SDS011;7834;49.452;11.056;2024-01-07T13:14:26;11.73;;;8.57;;
15466;SDS011;7834;49.452;11.056;2024-01-07T13:16:52;11.63;;;8.47;;
15466;SDS011;7834;49.452;11.056;2024-01-07T13:19:17;11.93;;;8.13;;
15466;SDS011;7834;49.452;11.056;2024-01-07T13:21:43;12.83;;;8.30;;
15466;SDS011;7834;49.452;11.056;2024-01-07T13:24:10;11.77;;;7.95;;
15466;SDS011;7834;49.452;11.056;2024-01-07T13:26:35;9.85;;;7.90;;
15466;SDS011;7834;49.452;11.056;2024-01-07T13:29:01;11.47;;;8.13;;
15466;SDS011;7834;49.452;11.056;2024-01-07T13:31:26;10.63;;;7.47;;
15466;SDS011;7834;49.452;11.056;2024-01-07T13:33:52;10.70;;;7.73;;
15466;SDS011;7834;49.452;11.056;2024-01-07T13:36:17;9.80;;;7.63;;
15466;SDS011;7834;49.452;11.056;2024-01-07T13:38:43;9.40;;;7.30;;
15466;SDS011;7834;49.452;11.056;2024-01-07T13:41:09;10.37;;;7.43;;
15466;SDS011;7834;49.452;11.056;2024-01-07T13:43:34;9.63;;;7.25;;
15466;SDS011;7834;49.452;11.056;2024-01-07T13:46:00;10.37;;;7.50;;
15466;SDS011;7834;49.452;11.056;2024-01-07T13:48:27;9.77;;;7.57;;
15466;SDS011;7834;49.452;11.056;2024-01-07T13:50:53;9.57;;;7.07;;
15466;SDS011;7834;49.452;11.056;2024-01-07T13:53:19;10.27;;;7.32;;
15466;SDS011;7834;49.452;11.056;2024-01-07T13:55:45;9.77;;;7.43;;
15466;SDS011;7834;49.452;11.056;2024-01-07T13:58:12;9.82;;;7.10;;
15466;SDS011;7834;49.452;11.056;2024-01-07T14:00:37;8.70;;;6.47;;
15466;SDS011;7834;49.452;11.056;2024-01-07T14:03:03;8.17;;;6.40;;
15466;SDS011;7834;49.452;11.056;2024-01-07T14:05:29;9.57;;;7.00;;
15466;SDS011;7834;49.452;11.056;2024-01-07T14:07:54;9.10;;;6.87;;
15466;SDS011;7834;49.452;11.056;2024-01-07T14:10:20;7.93;;;6.50;;
15466;SDS011;7834;49.452;11.056;2024-01-07T14:12:45;8.27;;;6.60;;
15466;SDS011;7834;49.452;11.056;2024-01-07T14:15:11;8.48;;;5.93;;
15466;SDS011;7834;49.452;11.056;2024-01-07T14:17:36;10.53;;;7.80;;
15466;SDS011;7834;49.452;11.056;2024-01-07T14:20:02;9.85;;;6.68;;
15466;SDS011;7834;49.452;11.056;2024-01-07T14:22:29;8.10;;;6.28;;
15466;SDS011;7834;49.452;11.056;2024-01-07T14:24:54;8.70;;;5.80;;
15466;SDS011;7834;49.452;11.056;2024-01-07T14:27:20;7.63;;;5.93;;
15466;SDS011;7834;49.452;11.056;2024-01-07T14:29:45;7.93;;;5.82;;
15466;SDS011;7834;49.452;11.056;2024-01-07T14:32:11;7.17;;;6.03;;
15466;SDS011;7834;49.452;11.056;2024-01-07T14:34:40;7.70;;;5.90;;